Orbital elements of COSMOS 970 DEB
| Launched | 20 December 1977 |
| Flight ended | – |
| Launch site | Tyuratam Missile and Space Center, Kazakhstan (Also known as Baikonur Cosmodrome) |
| Owner | Commonwealth of Independent States (former USSR) |
| NORAD ID | 65006 |
| Date fetched |
Epoch osculation |
Inc. [°] |
Ecc. | RA asc node [hr] |
Arg Peri. [°] |
Mean anom [°] |
Mean motion [rev/day] |
Abs. mag |
| Date fetched |
Epoch osculation |
Inc. [°] |
Ecc. | RA asc node [hr] |
Arg Peri. [°] |
Mean anom [°] |
Mean motion [rev/day] |
Abs. mag |
| 2026 May 03 17:57 | 2026 Apr 29 10:16:32 | 65.4938 | 0.01358 | 11.9573 | 288.8259 | 69.8109 | 13.73494 | – |
| 2026 May 02 17:57 | 2026 Apr 29 10:16:32 | 65.4938 | 0.01358 | 11.9573 | 288.8259 | 69.8109 | 13.73494 | – |
| 2026 May 01 17:56 | 2026 Apr 29 10:16:32 | 65.4938 | 0.01358 | 11.9573 | 288.8259 | 69.8109 | 13.73494 | – |
| 2026 Apr 30 17:56 | 2026 Apr 29 10:16:32 | 65.4938 | 0.01358 | 11.9573 | 288.8259 | 69.8109 | 13.73494 | – |
| 2026 Apr 29 17:57 | 2026 Apr 22 22:44:46 | 65.4947 | 0.01355 | 13.0362 | 291.3880 | 69.8109 | 13.73494 | – |
| 2026 Apr 28 17:56 | 2026 Apr 22 22:44:46 | 65.4947 | 0.01355 | 13.0362 | 291.3880 | 69.8109 | 13.73494 | – |
| 2026 Apr 27 17:58 | 2026 Apr 22 22:44:46 | 65.4947 | 0.01355 | 13.0362 | 291.3880 | 69.8109 | 13.73494 | – |
| 2026 Apr 26 17:58 | 2026 Apr 22 22:44:46 | 65.4947 | 0.01355 | 13.0362 | 291.3880 | 69.8109 | 13.73494 | – |
| 2026 Apr 25 17:58 | 2026 Apr 22 22:44:46 | 65.4947 | 0.01355 | 13.0362 | 291.3880 | 69.8109 | 13.73494 | – |
| 2026 Apr 24 17:59 | 2026 Apr 22 22:44:46 | 65.4947 | 0.01355 | 13.0362 | 291.3880 | 69.8109 | 13.73494 | – |
| 2026 Apr 23 17:57 | 2026 Apr 16 12:57:50 | 65.4944 | 0.01351 | 14.1030 | 293.9294 | 69.8109 | 13.73494 | – |
| 2026 Apr 22 17:57 | 2026 Apr 16 12:57:50 | 65.4944 | 0.01351 | 14.1030 | 293.9294 | 69.8109 | 13.73494 | – |
| 2026 Apr 21 17:57 | 2026 Apr 16 12:57:50 | 65.4944 | 0.01351 | 14.1030 | 293.9294 | 69.8109 | 13.73494 | – |
| 2026 Apr 20 17:57 | 2026 Apr 16 12:57:50 | 65.4944 | 0.01351 | 14.1030 | 293.9294 | 69.8109 | 13.73494 | – |
| 2026 Apr 19 17:58 | 2026 Apr 16 12:57:50 | 65.4944 | 0.01351 | 14.1030 | 293.9294 | 69.8109 | 13.73494 | – |
| 2026 Apr 18 17:56 | 2026 Apr 13 01:04:57 | 65.4944 | 0.01349 | 14.6849 | 295.3283 | 69.8109 | 13.73494 | – |
| 2026 Apr 16 17:57 | 2026 Apr 13 01:04:57 | 65.4944 | 0.01349 | 14.6849 | 295.3283 | 69.8109 | 13.73494 | – |
| 2026 Apr 14 17:57 | 2026 Apr 13 01:04:57 | 65.4944 | 0.01349 | 14.6849 | 295.3283 | 69.8109 | 13.73494 | – |
| 2026 Apr 13 17:57 | 2026 Apr 13 01:04:57 | 65.4944 | 0.01349 | 14.6849 | 295.3283 | 69.8109 | 13.73494 | – |
| 2026 Apr 12 17:57 | 2026 Apr 06 15:17:58 | 65.4938 | 0.01345 | 15.7518 | 297.8850 | 69.8109 | 13.73494 | – |
| 2026 Apr 11 17:57 | 2026 Apr 06 15:17:58 | 65.4938 | 0.01345 | 15.7518 | 297.8850 | 69.8109 | 13.73494 | – |
| 2026 Apr 10 17:58 | 2026 Apr 06 15:17:58 | 65.4938 | 0.01345 | 15.7518 | 297.8850 | 69.8109 | 13.73494 | – |
| 2026 Apr 09 18:01 | 2026 Apr 06 15:17:58 | 65.4938 | 0.01345 | 15.7518 | 297.8850 | 69.8109 | 13.73494 | – |
| 2026 Apr 08 17:57 | 2026 Apr 06 15:17:58 | 65.4938 | 0.01345 | 15.7518 | 297.8850 | 69.8109 | 13.73494 | – |
| 2026 Apr 07 17:57 | 2026 Apr 02 02:57:07 | 65.4934 | 0.01343 | 16.5034 | 299.7003 | 69.8109 | 13.73494 | – |
| 2026 Apr 06 17:57 | 2026 Apr 02 02:57:07 | 65.4934 | 0.01343 | 16.5034 | 299.7003 | 69.8109 | 13.73494 | – |